Time;durP1;ratioP1;P1;durP2;ratioP2;P2;SDS_P1;SDS_P2;PMS_P1;PMS_P2;Temp;Humidity;BMP_temperature;BMP_pressure;BME280_temperature;BME280_humidity;BME280_pressure;Samples;Min_cycle;Max_cycle;Signal;HPM_P1;HPM_P2
2024/02/21 00:01:25;;;;;;;1999.90;999.90;;;;;;;8.90;100.00;102105.31;10213920;29;20047;-69
2024/02/21 00:06:28;;;;;;;1999.90;999.90;;;;;;;8.78;100.00;102101.31;10214953;29;20060;-69
2024/02/21 00:11:30;;;;;;;1999.90;999.90;;;;;;;9.02;100.00;102102.34;10213611;29;20053;-69
2024/02/21 00:16:33;;;;;;;1999.90;999.90;;;;;;;9.05;100.00;102097.03;10214723;29;20083;-69
2024/02/21 00:21:35;;;;;;;1999.90;999.90;;;;;;;9.11;100.00;102086.41;10214738;29;20044;-70
2024/02/21 00:26:38;;;;;;;1999.90;999.90;;;;;;;8.96;100.00;102086.00;10213967;29;20051;-69
2024/02/21 00:31:40;;;;;;;1999.90;999.90;;;;;;;8.91;100.00;102067.88;10213245;29;20058;-69
2024/02/21 00:36:43;;;;;;;1999.90;999.90;;;;;;;8.98;100.00;102063.28;10214348;29;20063;-69
2024/02/21 00:41:45;;;;;;;1999.90;999.90;;;;;;;8.92;100.00;102075.63;10213681;29;20411;-69
2024/02/21 00:46:47;;;;;;;1999.90;999.90;;;;;;;8.74;100.00;102057.91;10213559;29;20079;-69
2024/02/21 00:51:50;;;;;;;1999.90;999.90;;;;;;;8.64;100.00;102046.00;10214067;29;20048;-69
2024/02/21 00:56:52;;;;;;;1999.90;999.90;;;;;;;8.60;100.00;102052.25;10213368;29;20055;-69
2024/02/21 01:01:54;;;;;;;1999.90;999.90;;;;;;;8.65;100.00;102043.34;10212949;29;20051;-69
2024/02/21 01:06:57;;;;;;;1999.90;999.90;;;;;;;8.66;100.00;102037.25;10217057;29;20048;-69
2024/02/21 01:11:59;;;;;;;1999.90;999.90;;;;;;;8.61;100.00;102033.91;10221111;29;20063;-69
2024/02/21 01:17:01;;;;;;;1999.90;999.90;;;;;;;8.61;100.00;102031.31;10220342;29;20051;-69
2024/02/21 01:22:04;;;;;;;1999.90;999.90;;;;;;;8.63;100.00;102026.03;10220227;29;20055;-69
2024/02/21 01:27:06;;;;;;;1999.90;999.90;;;;;;;8.69;100.00;102011.06;10220656;29;20126;-69
2024/02/21 01:32:09;;;;;;;1999.90;999.90;;;;;;;8.52;100.00;102011.56;10219763;29;20063;-69
2024/02/21 01:37:11;;;;;;;1999.90;999.90;;;;;;;8.62;100.00;101999.06;10220181;29;20052;-69
2024/02/21 01:42:14;;;;;;;1999.90;999.90;;;;;;;8.65;100.00;101977.25;10219400;29;20090;-69
2024/02/21 01:47:16;;;;;;;1999.90;999.90;;;;;;;8.64;100.00;101976.41;10219972;29;20059;-69
2024/02/21 01:52:19;;;;;;;1999.90;999.90;;;;;;;8.55;100.00;101979.28;10218994;29;20553;-69
2024/02/21 01:57:21;;;;;;;1999.90;999.90;;;;;;;8.90;100.00;101990.41;10218383;29;20054;-69
2024/02/21 02:02:25;;;;;;;1999.90;999.90;;;;;;;8.63;100.00;101997.31;10219344;29;20050;-69
2024/02/21 02:07:27;;;;;;;1999.90;999.90;;;;;;;8.70;100.00;101988.41;10219160;29;20056;-69
2024/02/21 02:12:30;;;;;;;1999.90;999.90;;;;;;;8.92;100.00;101988.59;10218269;29;20051;-71
2024/02/21 02:17:32;;;;;;;1999.90;999.90;;;;;;;9.12;100.00;101985.34;10218436;29;20058;-69
2024/02/21 02:22:35;;;;;;;1999.90;999.90;;;;;;;9.15;100.00;101985.25;10217469;29;20055;-69
2024/02/21 02:27:44;;;;;;;1999.90;999.90;;;;;;;8.81;100.00;101983.72;10217227;29;20060;-69
2024/02/21 02:32:47;;;;;;;1999.90;999.90;;;;;;;8.84;100.00;101981.00;10217814;29;20054;-69
2024/02/21 02:37:50;;;;;;;1999.90;999.90;;;;;;;8.86;100.00;101965.25;10217778;29;20110;-69
2024/02/21 02:42:54;;;;;;;1999.90;999.90;;;;;;;8.85;100.00;101953.97;10216687;29;20052;-69
2024/02/21 02:47:57;;;;;;;1999.90;999.90;;;;;;;8.82;100.00;101941.00;10216497;29;20055;-69
2024/02/21 02:53:00;;;;;;;1999.90;999.90;;;;;;;9.10;100.00;101934.91;10216192;29;20052;-69
2024/02/21 02:58:02;;;;;;;1999.90;999.90;;;;;;;8.83;100.00;101934.03;10217230;29;20052;-69
2024/02/21 03:03:05;;;;;;;1999.90;999.90;;;;;;;8.73;100.00;101938.69;10215863;29;20123;-69
2024/02/21 03:08:08;;;;;;;1999.90;999.90;;;;;;;8.90;100.00;101931.16;10216888;29;20079;-69
2024/02/21 03:13:10;;;;;;;1999.90;999.90;;;;;;;8.96;100.00;101924.91;10216564;29;20130;-69
2024/02/21 03:18:12;;;;;;;1999.90;999.90;;;;;;;9.06;100.00;101928.06;10216453;29;20087;-69
2024/02/21 03:23:15;;;;;;;1999.90;999.90;;;;;;;9.23;100.00;101925.75;10216285;29;20099;-69
2024/02/21 03:28:17;;;;;;;1999.90;999.90;;;;;;;9.45;100.00;101920.63;10214810;29;20542;-69
2024/02/21 03:33:20;;;;;;;1999.90;999.90;;;;;;;9.10;100.00;101919.22;10215871;29;20130;-69
2024/02/21 03:38:23;;;;;;;1999.90;999.90;;;;;;;8.93;100.00;101923.25;10213731;29;20134;-69
2024/02/21 03:43:25;;;;;;;1999.90;999.90;;;;;;;9.25;100.00;101902.19;10213865;29;20054;-69
2024/02/21 03:48:28;;;;;;;1999.90;999.90;;;;;;;9.16;100.00;101895.47;10215532;29;20062;-69
2024/02/21 03:53:30;;;;;;;1999.90;999.90;;;;;;;9.38;100.00;101886.91;10214630;29;20595;-69
2024/02/21 03:58:33;;;;;;;1999.90;999.90;;;;;;;9.11;100.00;101889.56;10215138;29;20056;-69
2024/02/21 04:03:35;;;;;;;1999.90;999.90;;;;;;;9.16;100.00;101885.03;10215182;29;20052;-69
2024/02/21 04:08:38;;;;;;;1999.90;999.90;;;;;;;9.35;100.00;101889.66;10214271;29;20414;-69
2024/02/21 04:13:41;;;;;;;1999.90;999.90;;;;;;;9.13;100.00;101885.16;10212924;29;20504;-69
2024/02/21 04:18:43;;;;;;;1999.90;999.90;;;;;;;9.08;100.00;101890.53;10214010;29;20063;-69
2024/02/21 04:23:46;;;;;;;1999.90;999.90;;;;;;;8.86;100.00;101887.78;10213472;29;20056;-69
2024/02/21 04:28:48;;;;;;;1999.90;999.90;;;;;;;9.17;100.00;101893.75;10214530;29;20058;-69
2024/02/21 04:33:51;;;;;;;1999.90;999.90;;;;;;;9.55;100.00;101881.09;10213712;29;20056;-70
2024/02/21 04:38:53;;;;;;;1999.90;999.90;;;;;;;9.29;100.00;101872.41;10212760;29;20060;-69
2024/02/21 04:43:55;;;;;;;1999.90;999.90;;;;;;;9.33;100.00;101873.16;10221614;29;20054;-69
2024/02/21 04:48:58;;;;;;;1999.90;999.90;;;;;;;9.39;100.00;101876.41;10221969;29;20122;-69
2024/02/21 04:54:00;;;;;;;1999.90;999.90;;;;;;;9.16;100.00;101873.75;10221843;29;20055;-69
2024/02/21 04:59:03;;;;;;;1999.90;999.90;;;;;;;8.99;100.00;101864.72;10221072;29;20086;-69
2024/02/21 05:04:06;;;;;;;1999.90;999.90;;;;;;;8.96;100.00;101846.56;10220896;29;20070;-69
2024/02/21 05:09:09;;;;;;;1999.90;999.90;;;;;;;9.19;100.00;101837.91;10221359;29;20051;-69
2024/02/21 05:14:12;;;;;;;1999.90;999.90;;;;;;;9.10;100.00;101826.03;10219937;29;20059;-69
2024/02/21 05:19:14;;;;;;;1999.90;999.90;;;;;;;9.03;100.00;101815.84;10220944;29;20048;-69
2024/02/21 05:24:17;;;;;;;1999.90;999.90;;;;;;;9.05;100.00;101824.47;10220209;29;20579;-69
2024/02/21 05:29:19;;;;;;;1999.90;999.90;;;;;;;9.14;100.00;101820.69;10219975;29;20055;-69
2024/02/21 05:34:22;;;;;;;1999.90;999.90;;;;;;;9.20;100.00;101799.59;10219152;29;20043;-69
2024/02/21 05:39:25;;;;;;;1999.90;999.90;;;;;;;9.00;100.00;101801.13;10218552;29;20110;-69
2024/02/21 05:44:27;;;;;;;1999.90;999.90;;;;;;;9.22;100.00;101800.38;10219601;29;20123;-69
2024/02/21 05:49:29;;;;;;;1999.90;999.90;;;;;;;9.01;100.00;101795.00;10219884;29;20052;-69
2024/02/21 05:54:32;;;;;;;1999.90;999.90;;;;;;;9.19;100.00;101774.34;10224857;23;20059;-69
2024/02/21 05:59:36;;;;;;;1999.90;999.90;;;;;;;8.99;100.00;101772.44;10202735;29;20055;-69
2024/02/21 06:04:39;;;;;;;1999.90;999.90;;;;;;;9.20;100.00;101755.16;10219378;29;20194;-69
2024/02/21 06:09:42;;;;;;;1999.90;999.90;;;;;;;9.05;100.00;101759.19;10219052;29;20066;-69
2024/02/21 06:14:44;;;;;;;1999.90;999.90;;;;;;;8.93;100.00;101752.63;10218918;29;20055;-69
2024/02/21 06:19:47;;;;;;;1999.90;999.90;;;;;;;8.76;100.00;101758.44;10217603;29;20083;-69
2024/02/21 06:24:49;;;;;;;1999.90;999.90;;;;;;;8.87;100.00;101743.22;10217454;29;20074;-69
2024/02/21 06:29:51;;;;;;;1999.90;999.90;;;;;;;9.03;100.00;101740.94;10218437;29;20055;-69
2024/02/21 06:34:54;;;;;;;1999.90;999.90;;;;;;;8.77;100.00;101733.16;10218093;29;20051;-69
2024/02/21 06:39:56;;;;;;;1999.90;999.90;;;;;;;8.89;100.00;101748.41;10216935;29;20139;-69
2024/02/21 06:44:59;;;;;;;1999.90;999.90;;;;;;;8.76;100.00;101740.16;10217858;29;20059;-69
2024/02/21 06:50:01;;;;;;;1999.90;999.90;;;;;;;8.91;100.00;101737.00;10217023;29;20693;-70
2024/02/21 06:55:04;;;;;;;1999.90;999.90;;;;;;;8.87;100.00;101743.22;10216460;29;20515;-69
2024/02/21 07:00:08;;;;;;;1999.90;999.90;;;;;;;8.93;100.00;101734.34;10215920;29;20052;-69
2024/02/21 07:05:10;;;;;;;1999.90;999.90;;;;;;;9.02;100.00;101738.38;10216042;29;20131;-69
2024/02/21 07:10:12;;;;;;;1999.90;999.90;;;;;;;8.82;100.00;101726.03;10215255;29;20515;-69
2024/02/21 07:15:15;;;;;;;1999.90;999.90;;;;;;;8.94;100.00;101730.81;10216591;29;20070;-69
2024/02/21 07:20:17;;;;;;;1999.90;999.90;;;;;;;8.90;100.00;101729.22;10216216;29;20058;-69
2024/02/21 07:25:20;;;;;;;1999.90;999.90;;;;;;;9.09;100.00;101716.34;10216302;29;20054;-69
2024/02/21 07:30:22;;;;;;;1999.90;999.90;;;;;;;9.04;100.00;101702.59;10216013;29;20062;-69
2024/02/21 07:35:24;;;;;;;1999.90;999.90;;;;;;;8.68;100.00;101706.47;10215296;29;20051;-69
2024/02/21 07:40:27;;;;;;;1999.90;999.90;;;;;;;8.96;100.00;101699.41;10215765;29;20052;-69
2024/02/21 07:45:29;;;;;;;1999.90;999.90;;;;;;;8.85;100.00;101697.19;10215049;29;20055;-69
2024/02/21 07:50:32;;;;;;;1999.90;999.90;;;;;;;9.06;100.00;101690.31;10215488;29;20146;-69
2024/02/21 07:55:34;;;;;;;1999.90;999.90;;;;;;;8.98;100.00;101681.91;10213739;29;20426;-69
2024/02/21 08:00:37;;;;;;;1999.90;999.90;;;;;;;8.87;100.00;101669.25;10215228;29;20051;-69
2024/02/21 08:05:39;;;;;;;1999.90;999.90;;;;;;;9.06;100.00;101654.63;10215104;29;20055;-69
2024/02/21 08:10:42;;;;;;;1999.90;999.90;;;;;;;9.01;100.00;101637.41;10214894;29;20055;-69
2024/02/21 08:15:44;;;;;;;1999.90;999.90;;;;;;;9.21;100.00;101637.53;10214506;29;20055;-69
2024/02/21 08:20:46;;;;;;;1999.90;999.90;;;;;;;9.35;100.00;101639.59;10214733;29;20087;-68
2024/02/21 08:25:49;;;;;;;1999.90;999.90;;;;;;;9.43;100.00;101634.94;10214640;29;20053;-69
2024/02/21 08:30:51;;;;;;;1999.90;999.90;;;;;;;9.46;100.00;101628.72;10197778;29;20047;-69
2024/02/21 08:35:54;;;;;;;1999.90;999.90;;;;;;;9.43;100.00;101621.88;10214403;29;20054;-69
2024/02/21 08:40:56;;;;;;;1999.90;999.90;;;;;;;9.36;100.00;101620.38;10213206;29;20051;-69
2024/02/21 08:45:59;;;;;;;1999.90;999.90;;;;;;;9.60;100.00;101623.81;10214249;29;20062;-69
2024/02/21 08:51:01;;;;;;;1999.90;999.90;;;;;;;9.61;100.00;101595.88;10213476;29;20384;-69
2024/02/21 08:56:04;;;;;;;1999.90;999.90;;;;;;;9.44;100.00;101600.03;10213276;29;20464;-69
2024/02/21 09:01:10;;;;;;;1999.90;999.90;;;;;;;9.69;100.00;101593.81;10212777;29;20126;-69
2024/02/21 09:06:13;;;;;;;1999.90;999.90;;;;;;;9.60;99.80;101568.03;10213902;29;20060;-69
2024/02/21 09:11:16;;;;;;;1999.90;999.90;;;;;;;9.65;99.87;101560.88;10213786;29;20048;-69
2024/02/21 09:16:19;;;;;;;1999.90;999.90;;;;;;;9.50;100.00;101557.13;10213706;29;20058;-69
2024/02/21 09:21:21;;;;;;;1999.90;999.90;;;;;;;9.46;100.00;101565.97;10211931;29;20460;-69
2024/02/21 09:26:23;;;;;;;1999.90;999.90;;;;;;;9.89;100.00;101555.53;10214175;29;20131;-69
2024/02/21 09:31:26;;;;;;;1999.90;999.90;;;;;;;10.12;98.25;101557.13;10220503;29;20130;-69
2024/02/21 09:36:28;;;;;;;1999.90;999.90;;;;;;;9.96;97.89;101552.56;10219809;29;20055;-68
2024/02/21 09:41:30;;;;;;;1999.90;999.90;;;;;;;10.40;95.98;101554.19;10219780;29;20505;-69
2024/02/21 09:46:42;;;;;;;1999.90;999.90;;;;;;;10.09;97.61;101537.22;10218336;29;20134;-69
2024/02/21 09:51:44;;;;;;;;;;;;;;;9.79;98.00;101531.53;10219186;29;20135;-69
2024/02/21 09:56:47;;;;;;;1999.90;999.90;;;;;;;9.93;98.32;101518.69;10217958;29;19978;-69
2024/02/21 10:01:50;;;;;;;1999.90;999.90;;;;;;;9.81;99.08;101514.84;10217774;29;20506;-69
2024/02/21 10:06:54;;;;;;;1999.90;999.90;;;;;;;9.78;100.00;101495.81;10218201;29;20055;-69
2024/02/21 10:12:11;;;;;;;1999.90;999.90;;;;;;;10.09;100.00;101490.09;10219234;29;20135;-69
2024/02/21 10:17:20;;;;;;;1999.90;999.90;;;;;;;9.61;100.00;101478.22;10217839;29;20048;-69
2024/02/21 10:22:23;;;;;;;1999.90;999.90;;;;;;;9.69;100.00;101462.22;10218783;29;20051;-69
2024/02/21 10:27:25;;;;;;;1999.90;999.90;;;;;;;9.43;100.00;101464.16;10218522;29;20074;-69
2024/02/21 10:32:29;;;;;;;1999.90;999.90;;;;;;;9.60;100.00;101439.91;10217127;29;20052;-69
2024/02/21 10:37:32;;;;;;;1999.90;999.90;;;;;;;9.20;100.00;101423.34;10216792;29;20071;-68
2024/02/21 10:42:36;;;;;;;1999.90;999.90;;;;;;;9.46;100.00;101420.47;10217981;29;20130;-69
2024/02/21 10:47:40;;;;;;;1999.90;999.90;;;;;;;9.47;100.00;101411.69;10218042;29;20047;-68
2024/02/21 10:52:56;;;;;;;1999.90;999.90;;;;;;;10.14;100.00;101403.56;10216707;29;20420;-69
2024/02/21 10:57:58;;;;;;;1999.90;999.90;;;;;;;9.90;100.00;101381.97;10215624;29;20579;-69
2024/02/21 11:03:01;;;;;;;1999.90;999.90;;;;;;;10.15;100.00;101374.69;10216209;29;20051;-69
2024/02/21 11:08:06;;;;;;;1999.90;999.90;;;;;;;9.98;100.00;101345.84;10217057;29;20055;-68
2024/02/21 11:13:09;;;;;;;1999.90;999.90;;;;;;;9.92;100.00;101318.22;10215007;29;20505;-69
2024/02/21 11:18:12;;;;;;;1999.90;999.90;;;;;;;10.00;100.00;101289.06;10215453;29;20063;-69
2024/02/21 11:23:27;;;;;;;1999.90;999.90;;;;;;;10.20;100.00;101270.69;10214535;29;20047;-69
2024/02/21 11:28:29;;;;;;;1999.90;999.90;;;;;;;10.00;100.00;101292.56;10216312;29;20123;-69
2024/02/21 11:33:34;;;;;;;1999.90;999.90;;;;;;;10.04;100.00;101298.47;10216009;29;20051;-69
2024/02/21 11:38:39;;;;;;;1999.90;999.90;;;;;;;10.10;98.51;101292.09;10215733;29;20058;-69
2024/02/21 11:43:42;;;;;;;1999.90;999.90;;;;;;;10.25;98.55;101266.97;10215792;29;20052;-69
2024/02/21 11:48:49;;;;;;;1999.90;999.90;;;;;;;10.21;97.83;101253.19;10214610;29;20080;-68
2024/02/21 11:53:55;;;;;;;1999.90;999.90;;;;;;;10.43;94.86;101245.16;10214506;29;20408;-69
2024/02/21 11:59:03;;;;;;;;;;;;;;;10.33;95.87;101251.78;10215137;29;20059;-68
2024/02/21 12:04:06;;;;;;;1999.90;999.90;;;;;;;10.15;95.06;101240.41;10215045;29;19930;-69
2024/02/21 12:09:11;;;;;;;1999.90;999.90;;;;;;;10.35;92.96;101229.81;10215007;29;20056;-68
2024/02/21 12:14:17;;;;;;;1999.90;999.90;;;;;;;10.47;91.33;101210.03;10214306;29;20051;-68
2024/02/21 12:19:19;;;;;;;1999.90;999.90;;;;;;;10.84;92.74;101207.31;10214232;29;20488;-68
2024/02/21 12:24:23;;;;;;;1999.90;999.90;;;;;;;10.67;89.45;101176.78;10212937;29;20072;-68
2024/02/21 12:29:26;;;;;;;1999.90;999.90;;;;;;;11.10;88.58;101153.56;10214585;29;20078;-69
2024/02/21 12:34:31;;;;;;;1999.90;999.90;;;;;;;11.52;88.47;101124.13;10214365;29;20063;-69
2024/02/21 12:39:49;;;;;;;1999.90;999.90;;;;;;;11.24;88.36;101108.25;10213852;29;20507;-69
2024/02/21 12:44:52;;;;;;;1999.90;999.90;;;;;;;11.31;88.80;101091.25;10214402;29;20051;-68
2024/02/21 12:49:55;;;;;;;1999.90;999.90;;;;;;;11.21;87.23;101079.59;10213565;29;20492;-72
2024/02/21 12:54:58;;;;;;;1999.90;999.90;;;;;;;11.10;87.76;101072.31;10213277;29;20082;-70
2024/02/21 13:00:01;;;;;;;1999.90;999.90;;;;;;;11.39;86.49;101048.88;10214155;29;20099;-68
2024/02/21 13:05:04;;;;;;;1999.90;999.90;;;;;;;11.06;86.89;101019.25;10221625;29;20135;-67
2024/02/21 13:10:08;;;;;;;1999.90;999.90;;;;;;;11.55;86.61;101002.50;10221449;29;20078;-68
2024/02/21 13:15:12;;;;;;;1999.90;999.90;;;;;;;11.48;85.18;100995.91;10219310;29;20385;-68
2024/02/21 13:20:14;;;;;;;1999.90;999.90;;;;;;;11.41;86.23;100973.59;10220491;29;20533;-69
2024/02/21 13:25:20;;;;;;;1999.90;999.90;;;;;;;11.25;86.28;100965.78;10220899;29;20048;-68
2024/02/21 13:30:22;;;;;;;1999.90;999.90;;;;;;;11.36;84.52;100954.69;10220597;29;20123;-68
2024/02/21 13:35:25;;;;;;;1999.90;999.90;;;;;;;11.21;85.42;100946.75;10220470;29;20055;-68
2024/02/21 13:40:27;;;;;;;1999.90;999.90;;;;;;;11.73;83.61;100937.59;10219362;29;20090;-69
2024/02/21 13:45:30;;;;;;;1999.90;999.90;;;;;;;11.21;84.27;100931.03;10220189;29;20048;-68
2024/02/21 13:50:41;;;;;;;1999.90;999.90;;;;;;;11.40;83.16;100925.59;10218301;29;20059;-69
2024/02/21 13:55:44;;;;;;;1999.90;999.90;;;;;;;11.54;82.81;100909.03;10218984;29;20098;-68
2024/02/21 14:00:47;;;;;;;1999.90;999.90;;;;;;;11.67;82.83;100896.03;10218934;29;20061;-68
2024/02/21 14:05:49;;;;;;;1999.90;999.90;;;;;;;11.28;83.44;100892.19;10219405;29;20047;-69
2024/02/21 14:10:51;;;;;;;1999.90;999.90;;;;;;;11.48;82.43;100856.94;10218086;29;20130;-69
2024/02/21 14:15:54;;;;;;;1999.90;999.90;;;;;;;11.23;83.35;100845.31;10217802;29;20052;-69
2024/02/21 14:20:56;;;;;;;1999.90;999.90;;;;;;;11.31;81.64;100837.00;10218199;29;20519;-69
2024/02/21 14:25:59;;;;;;;1999.90;999.90;;;;;;;11.04;81.55;100821.13;10218034;29;20047;-69
2024/02/21 14:31:03;;;;;;;1999.90;999.90;;;;;;;11.15;81.42;100795.16;10218472;29;20052;-69
2024/02/21 14:36:07;;;;;;;1999.90;999.90;;;;;;;10.96;82.31;100788.38;10217775;29;20126;-69
2024/02/21 14:41:13;;;;;;;1999.90;999.90;;;;;;;11.04;80.65;100790.53;10218092;29;20051;-69
2024/02/21 14:46:16;;;;;;;1999.90;999.90;;;;;;;10.91;82.45;100769.47;10216116;29;20510;-69
2024/02/21 14:51:18;;;;;;;1999.90;999.90;;;;;;;11.05;82.97;100750.31;10217696;29;20048;-69
2024/02/21 14:56:20;;;;;;;1999.90;999.90;;;;;;;10.72;83.60;100742.66;10216601;29;20590;-69
2024/02/21 15:01:22;;;;;;;1999.90;999.90;;;;;;;10.94;83.73;100729.13;10217320;29;20047;-69
2024/02/21 15:06:25;;;;;;;1999.90;999.90;;;;;;;10.80;82.54;100721.28;10217115;29;20083;-69
2024/02/21 15:11:27;;;;;;;1999.90;999.90;;;;;;;10.94;84.83;100713.41;10216896;29;20107;-69
2024/02/21 15:16:30;;;;;;;1999.90;999.90;;;;;;;10.60;85.75;100689.25;10214964;29;20086;-69
2024/02/21 15:21:33;;;;;;;1999.90;999.90;;;;;;;10.49;86.24;100681.19;10216585;29;20056;-69
2024/02/21 15:26:36;;;;;;;1999.90;999.90;;;;;;;10.66;86.85;100661.84;10214414;29;20062;-69
2024/02/21 15:31:38;;;;;;;1999.90;999.90;;;;;;;10.26;90.77;100654.56;10215326;29;20055;-69
2024/02/21 15:36:42;;;;;;;1999.90;999.90;;;;;;;10.21;92.26;100652.22;10214930;29;20467;-69
2024/02/21 15:41:44;;;;;;;1999.90;999.90;;;;;;;10.25;95.20;100642.41;10213965;29;20397;-69
2024/02/21 15:46:47;;;;;;;1999.90;999.90;;;;;;;9.99;95.29;100633.47;10215660;29;20126;-69
2024/02/21 15:51:49;;;;;;;1999.90;999.90;;;;;;;9.92;98.88;100617.28;10214317;29;20058;-69
2024/02/21 15:56:52;;;;;;;1999.90;999.90;;;;;;;9.95;100.00;100598.81;10214728;29;20059;-70
2024/02/21 16:01:54;;;;;;;1999.90;999.90;;;;;;;9.61;100.00;100590.25;10214437;29;20063;-70
2024/02/21 16:07:00;;;;;;;1999.90;999.90;;;;;;;9.66;100.00;100593.44;10213373;29;20385;-69
2024/02/21 16:12:04;;;;;;;1999.90;999.90;;;;;;;9.34;100.00;100584.81;10213802;29;20055;-68
2024/02/21 16:17:07;;;;;;;1999.90;999.90;;;;;;;9.43;100.00;100555.56;10214809;29;20051;-69
2024/02/21 16:22:10;;;;;;;1999.90;999.90;;;;;;;9.40;100.00;100547.06;10214629;29;20051;-69
2024/02/21 16:27:12;;;;;;;1999.90;999.90;;;;;;;9.31;100.00;100514.44;10212928;29;20517;-69
2024/02/21 16:32:14;;;;;;;1999.90;999.90;;;;;;;9.13;100.00;100505.88;10213903;29;20062;-69
2024/02/21 16:37:17;;;;;;;1999.90;999.90;;;;;;;9.21;100.00;100492.38;10217534;29;20074;-69
2024/02/21 16:42:19;;;;;;;1999.90;999.90;;;;;;;9.09;100.00;100480.84;10222522;29;20083;-69
2024/02/21 16:47:24;;;;;;;1999.90;999.90;;;;;;;9.14;100.00;100459.69;10222532;29;20052;-69
2024/02/21 16:52:26;;;;;;;1999.90;999.90;;;;;;;8.94;100.00;100451.22;10221949;29;20048;-69
2024/02/21 16:57:29;;;;;;;1999.90;999.90;;;;;;;8.96;100.00;100445.91;10221348;29;20431;-69
2024/02/21 17:02:31;;;;;;;1999.90;999.90;;;;;;;8.85;100.00;100449.13;10221790;29;20058;-69
2024/02/21 17:07:43;;;;;;;1999.90;999.90;;;;;;;8.91;100.00;100444.41;10221113;29;20051;-68
2024/02/21 17:12:45;;;;;;;1999.90;999.90;;;;;;;8.85;100.00;100426.47;10221333;29;20051;-69
2024/02/21 17:17:49;;;;;;;1999.90;999.90;;;;;;;8.72;100.00;100446.34;10221225;29;20055;-69
2024/02/21 17:22:51;;;;;;;1999.90;999.90;;;;;;;8.61;100.00;100420.00;10221038;29;20126;-69
2024/02/21 17:27:54;;;;;;;1999.90;999.90;;;;;;;8.69;100.00;100430.84;10219728;29;20058;-69
2024/02/21 17:32:56;;;;;;;1999.90;999.90;;;;;;;8.55;100.00;100419.41;10220630;29;20048;-69
2024/02/21 17:37:58;;;;;;;1999.90;999.90;;;;;;;8.65;100.00;100414.53;10220044;29;20510;-69
2024/02/21 17:43:01;;;;;;;1999.90;999.90;;;;;;;8.83;100.00;100397.00;10220354;29;20082;-69
2024/02/21 17:48:04;;;;;;;1999.90;999.90;;;;;;;8.69;100.00;100391.69;10219168;29;20055;-69
2024/02/21 17:53:06;;;;;;;1999.90;999.90;;;;;;;8.72;100.00;100392.41;10218974;29;20058;-68
2024/02/21 17:58:09;;;;;;;1999.90;999.90;;;;;;;8.74;100.00;100377.50;10219803;29;20055;-69
2024/02/21 18:03:12;;;;;;;1999.90;999.90;;;;;;;8.53;100.00;100368.25;10218945;29;20052;-68
2024/02/21 18:08:15;;;;;;;1999.90;999.90;;;;;;;8.76;100.00;100359.13;10230985;23;20136;-66
2024/02/21 18:13:17;;;;;;;1999.90;999.90;;;;;;;8.91;100.00;100353.03;10218030;29;20127;-66
2024/02/21 18:18:20;;;;;;;1999.90;999.90;;;;;;;8.66;100.00;100345.75;10218453;29;20403;-66
2024/02/21 18:23:22;;;;;;;1999.90;999.90;;;;;;;8.74;100.00;100327.91;10218113;29;20078;-66
2024/02/21 18:28:25;;;;;;;1999.90;999.90;;;;;;;8.61;100.00;100315.59;10218071;29;20483;-68
2024/02/21 18:33:28;;;;;;;1999.90;999.90;;;;;;;8.52;100.00;100309.16;10218411;29;20043;-68
2024/02/21 18:38:31;;;;;;;1999.90;999.90;;;;;;;8.57;100.00;100304.50;10218231;29;20058;-65
2024/02/21 18:43:33;;;;;;;1999.90;999.90;;;;;;;8.64;100.00;100284.13;10218113;29;20122;-66
2024/02/21 18:48:36;;;;;;;1999.90;999.90;;;;;;;8.68;100.00;100272.59;10217861;29;20099;-66
2024/02/21 18:53:38;;;;;;;1999.90;999.90;;;;;;;8.61;100.00;100276.47;10216498;29;20066;-65
2024/02/21 18:58:40;;;;;;;1999.90;999.90;;;;;;;8.71;100.00;100260.22;10215588;29;20407;-66
2024/02/21 19:03:43;;;;;;;1999.90;999.90;;;;;;;8.58;100.00;100254.00;10216661;29;20047;-65
2024/02/21 19:08:50;;;;;;;1999.90;999.90;;;;;;;8.72;100.00;100253.22;10216994;29;20083;-66
2024/02/21 19:13:52;;;;;;;1999.90;999.90;;;;;;;8.64;100.00;100230.19;10216243;29;20575;-66
2024/02/21 19:18:55;;;;;;;1999.90;999.90;;;;;;;8.59;100.00;100216.56;10216733;29;20079;-65
2024/02/21 19:23:57;;;;;;;1999.90;999.90;;;;;;;8.62;100.00;100210.31;10215919;29;20048;-65
2024/02/21 19:29:00;;;;;;;1999.90;999.90;;;;;;;8.76;100.00;100212.97;10214478;29;20499;-65
2024/02/21 19:34:03;;;;;;;1999.90;999.90;;;;;;;8.74;100.00;100199.13;10215232;29;20059;-65
2024/02/21 19:39:08;;;;;;;1999.90;999.90;;;;;;;8.65;100.00;100194.47;10214847;29;20055;-65
2024/02/21 19:44:11;;;;;;;1999.90;999.90;;;;;;;8.70;100.00;100185.44;10214769;29;20052;-66
2024/02/21 19:49:14;;;;;;;1999.90;999.90;;;;;;;8.85;100.00;100162.81;10214479;29;20047;-66
2024/02/21 19:54:18;;;;;;;1999.90;999.90;;;;;;;8.80;100.00;100161.41;10215438;29;20052;-66
2024/02/21 19:59:27;;;;;;;1999.90;999.90;;;;;;;8.72;100.00;100144.44;10214823;29;20521;-66
2024/02/21 20:04:29;;;;;;;1999.90;999.90;;;;;;;8.89;100.00;100129.50;10215278;29;20126;-66
2024/02/21 20:09:32;;;;;;;1999.90;999.90;;;;;;;8.74;100.00;100113.88;10213479;29;20059;-66
2024/02/21 20:14:34;;;;;;;1999.90;999.90;;;;;;;8.74;100.00;100100.81;10214617;29;20126;-66
2024/02/21 20:19:37;;;;;;;1999.90;999.90;;;;;;;8.99;100.00;100085.41;10214926;29;20058;-66
2024/02/21 20:24:40;;;;;;;1999.90;999.90;;;;;;;8.91;100.00;100080.69;10213642;29;20051;-66
2024/02/21 20:29:42;;;;;;;1999.90;999.90;;;;;;;8.77;100.00;100075.47;10214728;29;20047;-66
2024/02/21 20:34:47;;;;;;;1999.90;999.90;;;;;;;8.92;100.00;100069.28;10214494;29;20048;-66
2024/02/21 20:39:49;;;;;;;1999.90;999.90;;;;;;;9.04;100.00;100059.84;10214545;29;20055;-66
2024/02/21 20:44:53;;;;;;;1999.90;999.90;;;;;;;9.05;100.00;100045.88;10214390;29;20136;-66
2024/02/21 20:49:57;;;;;;;1999.90;999.90;;;;;;;9.00;100.00;100032.28;10213712;29;20059;-66
2024/02/21 20:55:00;;;;;;;1999.90;999.90;;;;;;;8.90;100.00;100037.22;10214123;29;20131;-66
2024/02/21 21:00:04;;;;;;;1999.90;999.90;;;;;;;8.95;100.00;100022.09;10213495;29;20455;-66
2024/02/21 21:05:07;;;;;;;1999.90;999.90;;;;;;;8.85;100.00;100024.44;10213406;29;20407;-66
2024/02/21 21:10:12;;;;;;;1999.90;999.90;;;;;;;9.13;100.00;100007.06;10213487;29;20084;-66
2024/02/21 21:15:15;;;;;;;1999.90;999.90;;;;;;;8.97;100.00;99996.72;10213161;29;20126;-66
2024/02/21 21:20:17;;;;;;;1999.90;999.90;;;;;;;9.10;100.00;99983.75;10212814;29;20060;-66
2024/02/21 21:25:20;;;;;;;1999.90;999.90;;;;;;;9.13;100.00;99975.72;10217992;29;20434;-66
2024/02/21 21:30:22;;;;;;;1999.90;999.90;;;;;;;9.07;100.00;99968.28;10220816;29;20086;-66
2024/02/21 21:35:26;;;;;;;1999.90;999.90;;;;;;;9.07;100.00;99974.31;10220599;29;20127;-66
2024/02/21 21:40:30;;;;;;;1999.90;999.90;;;;;;;9.13;100.00;99970.50;10220455;29;20047;-66
2024/02/21 21:45:33;;;;;;;1999.90;999.90;;;;;;;9.02;100.00;99970.34;10220181;29;20048;-66
2024/02/21 21:50:35;;;;;;;1999.90;999.90;;;;;;;8.83;100.00;99955.84;10219670;29;20480;-66
2024/02/21 21:55:38;;;;;;;1999.90;999.90;;;;;;;8.91;100.00;99961.44;10219224;29;20083;-66